KNQX/NQX METAR and TAF weather

Enter ICAO airport designator
Station Type Date Time Source
KNQX METAR 2021/09/25 12:53 UTC NOAA

KNQX 251253Z 14003KT 10SM FEW020 SCT055 BKN250 31/24 A3000 RMK AO2 SLP156 CB DSNT W T2 SET T03110244 $


Station Type Date Time Source
KNQX Decoded METAR 2021/09/25 12:53 UTC NOAA

KEY WEST NAVAL AIR STATION, FL, United States (KNQX) 24-35N 81-41W 6M
Sep 25, 2021 - 08:53 AM EDT / 2021.09.25 1253 UTC
Wind: from the SE (140 degrees) at 3 MPH (3 KT):0
Visibility: 10 mile(s):0
Sky conditions: mostly cloudy
Weather: Cumulonimbus clouds observed
Temperature: 88.0 F (31.1 C)
Heat index: 98.6 F (37.0 C):1
Dew Point: 75.9 F (24.4 C)
Relative Humidity: 67%
Pressure (altimeter): 30 in. Hg (1015 hPa)
ob: KNQX 251253Z 14003KT 10SM FEW020 SCT055 BKN250 31/24 A3000 RMK AO2 SLP156 CB DSNT W T2 SET T03110244
cycle: 13

Station Type Date Time Source
KNQX TAF 2021/09/25 10:35 UTC NOAA

TAF KNQX 2510/2607 VRB04KT 9999 VCSH FEW020 SCT250 QNH2991INS
FM251600 VRB05KT 9999 VCTS SCT020CB SCT250 QNH2990INS
FM260200 VRB03KT 9999 FEW020 SCT250 QNH2993INS T27/2510Z T33/2519Z
AMD 1025 FN20056

Example: see airport list